Pagrindinis puslapis
METAR-TAF:

METAR-TAF

Oro uostai :

Capo Mele

Andora, Italija

platuma: 43-57N, ilguma: 008-10E, Aukštis: 220 m

Dabartinis oras

Ataskaita buvo paskelbta 1 valandą ir 2 minutes, ne 17:55 UTC
Vėjas 13 kt iš Vakarų/Pietvakarių
Temperatūra 20°C
Drėgmė 64%
Slėgis 1014 hPa
Matomumas 10 km arba daugiau
Mažai debesys ne aukštis 2500 ft

METAR: LIMU 301755Z 24013KT 9999 FEW025 20/13 Q1014 RMK SCT QUK 2 QUL 1 S VIS MAR 30 KM VIS MIN 9999

Laikas: 20:57 (18:57 UTC)


TAF: trūkstamas

Orai ataskaitas ir orų prognozės (METAR, TAF).

turimą stotys yra geltonos ir raudonos taškus žemėlapyje.

Perkelti pele per norėdami pamatyti stoties vardą.

Tada spustelėkite, norėdami matyti oro stebėjimo ir prognozės.

Norėdami pakeisti žemėlapį: spustelėkite ant žalios mygtukų su juodo kryžiaus žemyn,; žalią mygtuką su brūkšneliu, jei norite nutolinti; arba žalių rodyklių gretimoms žemėlapius.


METAR-TAF: